Time;durP1;ratioP1;P1;durP2;ratioP2;P2;SDS_P1;SDS_P2;PMS_P1;PMS_P2;Temp;Humidity;BMP_temperature;BMP_pressure;BME280_temperature;BME280_humidity;BME280_pressure;Samples;Min_cycle;Max_cycle;Signal;HPM_P1;HPM_P2
2021/01/05 00:00:12;;;;;;;34.00;31.23;;;2.10;82.20;;;;;;5054401;28;20238;-77
2021/01/05 00:02:39;;;;;;;34.22;31.27;;;2.20;81.00;;;;;;5060858;28;20248;-77
2021/01/05 00:05:07;;;;;;;34.25;31.23;;;2.30;80.60;;;;;;5072429;28;20188;-77
2021/01/05 00:07:33;;;;;;;33.53;30.60;;;2.30;80.60;;;;;;5073801;28;20265;-77
2021/01/05 00:10:00;;;;;;;35.58;32.58;;;2.30;80.70;;;;;;5074024;28;20222;-77
2021/01/05 00:12:27;;;;;;;32.95;30.25;;;2.30;80.80;;;;;;5072388;28;20595;-77
2021/01/05 00:14:53;;;;;;;33.72;30.92;;;2.10;81.50;;;;;;5073624;28;20724;-77
2021/01/05 00:17:21;;;;;;;32.88;29.90;;;2.10;82.70;;;;;;5053888;28;20226;-77
2021/01/05 00:19:48;;;;;;;34.22;31.35;;;2.10;84.80;;;;;;5053892;28;20197;-77
2021/01/05 00:22:16;;;;;;;35.33;32.22;;;2.20;82.50;;;;;;5056814;28;20203;-76
2021/01/05 00:24:43;;;;;;;34.55;31.40;;;2.20;82.00;;;;;;5073944;28;20253;-77
2021/01/05 00:27:10;;;;;;;35.35;31.80;;;2.20;82.50;;;;;;5073629;28;20224;-77
2021/01/05 00:29:37;;;;;;;35.28;32.00;;;2.20;82.80;;;;;;5073693;28;20307;-77
2021/01/05 00:32:06;;;;;;;36.00;32.70;;;2.10;85.00;;;;;;5058873;28;20209;-77
2021/01/05 00:34:33;;;;;;;35.25;31.92;;;2.20;83.80;;;;;;5053860;28;20249;-77
2021/01/05 00:36:59;;;;;;;34.78;31.85;;;2.10;83.20;;;;;;5053565;28;20226;-77
2021/01/05 00:39:26;;;;;;;35.72;32.42;;;2.10;82.90;;;;;;5053696;28;20197;-77
2021/01/05 00:41:52;;;;;;;33.78;30.80;;;2.20;83.20;;;;;;5066128;28;20188;-77
2021/01/05 00:44:19;;;;;;;34.78;31.77;;;2.10;84.20;;;;;;5071774;28;20287;-77
2021/01/05 00:46:46;;;;;;;33.97;30.80;;;2.00;84.90;;;;;;5073196;28;20596;-77
2021/01/05 00:49:12;;;;;;;35.95;32.75;;;2.00;84.50;;;;;;5073298;28;20200;-77
2021/01/05 00:51:39;;;;;;;35.88;32.70;;;2.00;84.40;;;;;;5073558;28;20196;-77
2021/01/05 00:54:05;;;;;;;34.58;31.58;;;2.00;84.70;;;;;;5058290;28;20258;-77
2021/01/05 00:56:31;;;;;;;57.58;35.65;;;2.20;84.00;;;;;;5053006;28;20271;-77
2021/01/05 00:58:58;;;;;;;34.22;31.08;;;2.10;84.00;;;;;;5053178;28;20197;-77
2021/01/05 01:01:24;;;;;;;34.55;31.30;;;2.10;87.90;;;;;;5053254;28;20273;-77
2021/01/05 01:03:52;;;;;;;36.70;33.58;;;2.10;84.80;;;;;;5065777;28;20282;-77
2021/01/05 01:06:18;;;;;;;39.92;31.58;;;2.10;85.00;;;;;;5072956;28;20559;-77
2021/01/05 01:08:45;;;;;;;36.17;33.05;;;2.10;90.20;;;;;;5073010;28;20199;-77
2021/01/05 01:11:12;;;;;;;33.35;30.35;;;2.00;87.60;;;;;;5068881;28;20216;-77
2021/01/05 01:13:38;;;;;;;36.22;32.67;;;2.10;89.00;;;;;;5053125;28;20744;-77
2021/01/05 01:16:06;;;;;;;34.83;31.55;;;2.10;88.10;;;;;;5052735;28;20220;-77
2021/01/05 01:18:32;;;;;;;36.20;32.90;;;2.10;87.10;;;;;;5053034;28;20203;-77
2021/01/05 01:20:59;;;;;;;35.75;32.47;;;2.20;86.70;;;;;;5054614;28;20192;-77
2021/01/05 01:23:26;;;;;;;35.03;31.90;;;2.40;84.40;;;;;;5072706;28;20195;-77
2021/01/05 01:25:52;;;;;;;35.90;32.78;;;2.30;84.30;;;;;;5071974;28;20219;-77
2021/01/05 01:28:19;;;;;;;35.55;32.25;;;2.10;85.90;;;;;;5070889;28;20195;-77
2021/01/05 01:30:47;;;;;;;37.45;33.85;;;2.20;85.10;;;;;;5066554;28;20216;-77
2021/01/05 01:33:13;;;;;;;36.40;33.10;;;2.20;84.30;;;;;;5052833;28;20753;-77
2021/01/05 01:35:40;;;;;;;34.70;31.67;;;2.30;84.10;;;;;;5052647;28;20204;-77
2021/01/05 01:38:07;;;;;;;38.40;33.85;;;2.20;84.00;;;;;;5068840;28;20188;-77
2021/01/05 01:40:37;;;;;;;34.78;31.63;;;2.20;87.50;;;;;;5072583;28;20199;-77
2021/01/05 01:43:04;;;;;;;59.85;35.70;;;2.20;88.50;;;;;;5072743;28;20208;-77
2021/01/05 01:45:33;;;;;;;35.63;32.10;;;2.30;85.90;;;;;;5072266;28;20557;-77
2021/01/05 01:48:00;;;;;;;34.47;31.48;;;2.20;85.80;;;;;;5057199;28;20628;-78
2021/01/05 01:50:29;;;;;;;34.53;31.45;;;2.10;86.00;;;;;;5052160;28;20208;-77
2021/01/05 01:53:34;;;;;;;36.38;33.00;;;2.20;85.50;;;;;;5052497;28;20557;-77
2021/01/05 01:56:41;;;;;;;36.20;33.10;;;2.20;84.90;;;;;;5052299;28;20216;-77
2021/01/05 01:59:20;;;;;;;37.83;34.22;;;2.20;85.20;;;;;;5031942;28;20279;-77
2021/01/05 02:01:57;;;;;;;36.10;32.72;;;2.30;84.80;;;;;;5052636;28;20196;-77
2021/01/05 02:04:50;;;;;;;36.40;33.00;;;2.20;84.40;;;;;;5052541;28;20204;-77
2021/01/05 02:07:44;;;;;;;34.95;31.42;;;2.20;86.00;;;;;;5060826;28;20211;-77
2021/01/05 02:10:24;;;;;;;1779.55;268.63;;;2.20;85.90;;;;;;5069774;28;20215;-77
2021/01/05 02:13:08;;;;;;;225.35;49.72;;;2.20;87.30;;;;;;5072655;28;20195;-77
2021/01/05 02:15:43;;;;;;;35.17;31.88;;;2.30;93.50;;;;;;5072305;28;20206;-77
2021/01/05 02:18:33;;;;;;;34.22;31.02;;;2.30;90.20;;;;;;5072015;28;20199;-77
2021/01/05 02:21:03;;;;;;;376.38;70.20;;;2.30;88.80;;;;;;5072275;28;20192;-77
2021/01/05 02:23:43;;;;;;;35.03;32.03;;;2.30;90.30;;;;;;5072354;28;20265;-77
2021/01/05 02:26:16;;;;;;;33.13;30.08;;;2.30;89.60;;;;;;5059193;28;20290;-77
2021/01/05 02:28:46;;;;;;;34.97;31.67;;;2.40;87.10;;;;;;5052272;28;20196;-77
2021/01/05 02:31:24;;;;;;;34.97;31.83;;;2.30;89.60;;;;;;5051954;28;20278;-77
2021/01/05 02:34:02;;;;;;;216.93;51.92;;;2.30;88.30;;;;;;5052152;28;20216;-77
2021/01/05 02:37:25;;;;;;;37.95;33.28;;;2.20;89.10;;;;;;5070607;28;20216;-77
2021/01/05 02:40:24;;;;;;;34.00;30.90;;;2.30;89.10;;;;;;4979808;28;20194;-77
2021/01/05 02:43:41;;;;;;;34.55;31.08;;;2.30;89.20;;;;;;5075908;28;20197;-77
2021/01/05 02:46:27;;;;;;;34.83;31.67;;;2.20;87.40;;;;;;5013510;28;20228;-78
2021/01/05 02:49:08;;;;;;;34.45;31.20;;;2.40;88.30;;;;;;5013748;28;20255;-77
2021/01/05 02:52:08;;;;;;;34.53;31.45;;;2.30;87.60;;;;;;5044493;28;20232;-77
2021/01/05 02:55:11;;;;;;;37.25;33.58;;;2.30;85.90;;;;;;5051881;28;20670;-77
2021/01/05 02:57:49;;;;;;;37.67;33.67;;;2.30;85.60;;;;;;5055445;28;20763;-77
2021/01/05 03:00:57;;;;;;;36.72;33.22;;;2.50;85.20;;;;;;5061742;28;20545;-77
2021/01/05 03:03:44;;;;;;;35.80;32.65;;;2.50;84.70;;;;;;5075611;28;20232;-77
2021/01/05 03:06:40;;;;;;;34.83;31.65;;;2.60;84.40;;;;;;5075142;28;20220;-77
2021/01/05 03:09:32;;;;;;;39.05;35.33;;;2.50;85.30;;;;;;5075340;28;20200;-77
2021/01/05 03:12:19;;;;;;;40.03;35.88;;;2.50;84.60;;;;;;5055436;28;20195;-77
2021/01/05 03:14:56;;;;;;;39.80;36.10;;;2.50;84.20;;;;;;5055270;28;20201;-77
2021/01/05 03:17:28;;;;;;;37.72;33.97;;;2.50;84.20;;;;;;5065730;28;20277;-77
2021/01/05 03:20:12;;;;;;;37.55;33.92;;;2.30;84.60;;;;;;5075210;28;20196;-77
2021/01/05 03:22:50;;;;;;;38.38;34.30;;;2.40;84.70;;;;;;5075204;28;20200;-77
2021/01/05 03:25:19;;;;;;;38.15;34.30;;;2.40;85.00;;;;;;5075140;28;20207;-77
2021/01/05 03:27:47;;;;;;;40.30;36.10;;;2.40;84.90;;;;;;5060899;28;20292;-77
2021/01/05 03:30:22;;;;;;;39.00;34.92;;;2.30;86.50;;;;;;5055009;28;20224;-77
2021/01/05 03:32:49;;;;;;;40.38;36.25;;;2.40;85.70;;;;;;5055091;28;20211;-77
2021/01/05 03:35:17;;;;;;;40.55;36.55;;;2.40;85.50;;;;;;5054775;28;20203;-77
2021/01/05 03:37:43;;;;;;;39.13;35.22;;;2.40;85.40;;;;;;5067744;28;20757;-77
2021/01/05 03:40:11;;;;;;;41.60;37.30;;;2.50;85.10;;;;;;5075312;28;20192;-77
2021/01/05 03:42:38;;;;;;;41.65;37.55;;;2.50;85.20;;;;;;5074616;28;20556;-77
2021/01/05 03:45:07;;;;;;;41.65;37.47;;;2.40;85.70;;;;;;5074743;28;20299;-77
2021/01/05 03:47:33;;;;;;;42.38;36.97;;;2.30;86.40;;;;;;5062553;28;20226;-77
2021/01/05 03:49:59;;;;;;;43.42;38.88;;;2.30;86.60;;;;;;5053510;28;20216;-77
2021/01/05 03:52:26;;;;;;;42.70;38.35;;;2.30;87.00;;;;;;5054514;28;20207;-77
2021/01/05 03:54:53;;;;;;;43.20;38.83;;;2.30;87.00;;;;;;5054382;28;20616;-78
2021/01/05 03:57:20;;;;;;;47.35;39.00;;;2.30;86.20;;;;;;5054298;28;20693;-77
2021/01/05 03:59:46;;;;;;;42.55;37.97;;;2.30;86.40;;;;;;5066999;28;20215;-77
2021/01/05 04:02:12;;;;;;;39.83;35.67;;;2.40;87.30;;;;;;5073750;28;20269;-77
2021/01/05 04:04:39;;;;;;;47.05;38.17;;;2.50;86.80;;;;;;5074413;28;20196;-77
2021/01/05 04:07:05;;;;;;;43.25;38.88;;;2.40;87.40;;;;;;5074098;28;20219;-77
2021/01/05 04:09:32;;;;;;;58.75;41.08;;;2.40;88.00;;;;;;5074401;28;20196;-77
2021/01/05 04:11:58;;;;;;;43.03;38.50;;;2.40;87.60;;;;;;5058116;28;20188;-77
2021/01/05 04:14:25;;;;;;;48.45;39.55;;;2.50;86.80;;;;;;5054071;28;20205;-77
2021/01/05 04:16:51;;;;;;;42.13;37.65;;;2.50;87.30;;;;;;5053980;28;20225;-77
2021/01/05 04:19:17;;;;;;;40.83;36.70;;;2.50;86.90;;;;;;5054069;28;20283;-77
2021/01/05 04:21:44;;;;;;;39.58;35.78;;;2.50;86.20;;;;;;5066950;28;20637;-77
2021/01/05 04:24:10;;;;;;;39.63;35.83;;;2.60;85.90;;;;;;5074078;28;20208;-77
2021/01/05 04:26:38;;;;;;;42.53;38.50;;;2.60;85.40;;;;;;5073637;28;20220;-77
2021/01/05 04:29:04;;;;;;;40.55;36.55;;;2.40;85.90;;;;;;5073905;28;20673;-77
2021/01/05 04:31:37;;;;;;;40.70;36.65;;;2.30;86.70;;;;;;5065136;28;20216;-77
2021/01/05 04:34:04;;;;;;;44.80;38.30;;;2.30;87.20;;;;;;5053850;28;20562;-77
2021/01/05 04:36:30;;;;;;;75.88;39.80;;;2.30;87.10;;;;;;5053526;28;20216;-77
2021/01/05 04:38:56;;;;;;;40.78;36.88;;;2.50;87.10;;;;;;5053878;28;20289;-77
2021/01/05 04:41:26;;;;;;;43.10;38.60;;;2.40;87.10;;;;;;5063783;28;20208;-77
2021/01/05 04:43:57;;;;;;;41.45;37.10;;;2.30;87.20;;;;;;5073605;28;20253;-77
2021/01/05 04:46:54;;;;;;;42.75;38.35;;;2.40;87.30;;;;;;5073413;28;20705;-77
2021/01/05 04:49:52;;;;;;;39.72;35.47;;;2.30;87.40;;;;;;5073359;28;20196;-77
2021/01/05 04:52:25;;;;;;;79.00;37.85;;;2.20;87.90;;;;;;5055975;28;20193;-77
2021/01/05 04:54:56;;;;;;;40.75;36.78;;;2.20;88.60;;;;;;5054391;28;20215;-77
2021/01/05 04:57:27;;;;;;;42.90;36.83;;;2.20;88.50;;;;;;5053844;28;20227;-77
2021/01/05 05:00:00;;;;;;;40.90;36.65;;;2.30;88.70;;;;;;5054455;28;20220;-77
2021/01/05 05:02:43;;;;;;;40.70;36.58;;;2.30;88.40;;;;;;5052520;28;20197;-77
2021/01/05 05:05:38;;;;;;;41.92;37.30;;;2.30;88.40;;;;;;5054655;28;20203;-77
2021/01/05 05:08:20;;;;;;;40.53;36.17;;;2.30;88.50;;;;;;5073174;28;20200;-77
2021/01/05 05:10:50;;;;;;;40.65;36.35;;;2.30;88.20;;;;;;5073064;28;20226;-77
2021/01/05 05:13:25;;;;;;;44.05;39.35;;;2.20;88.90;;;;;;5073102;28;20282;-77
2021/01/05 05:15:56;;;;;;;40.00;36.00;;;2.30;89.00;;;;;;5057783;28;20220;-77
2021/01/05 05:18:41;;;;;;;40.63;36.25;;;2.30;89.20;;;;;;5053071;28;20192;-77
2021/01/05 05:21:28;;;;;;;39.33;35.42;;;2.40;89.20;;;;;;5052906;28;20661;-77
2021/01/05 05:24:06;;;;;;;42.35;37.83;;;2.40;89.20;;;;;;5053067;28;20201;-77
2021/01/05 05:26:41;;;;;;;42.95;38.42;;;2.50;89.20;;;;;;5052705;28;20307;-77
2021/01/05 05:29:20;;;;;;;42.28;37.80;;;2.30;89.40;;;;;;5053071;28;20196;-77
2021/01/05 05:31:50;;;;;;;42.78;38.22;;;2.30;89.90;;;;;;5052707;28;20274;-77
2021/01/05 05:34:23;;;;;;;42.10;38.00;;;2.40;90.30;;;;;;5054009;28;20200;-77
2021/01/05 05:37:07;;;;;;;41.47;37.35;;;2.20;90.30;;;;;;5072671;28;20704;-77
2021/01/05 05:39:51;;;;;;;40.90;36.90;;;2.30;90.90;;;;;;5072715;28;20252;-77
2021/01/05 05:42:36;;;;;;;42.38;37.85;;;2.20;91.10;;;;;;5072681;28;20286;-77
2021/01/05 05:45:07;;;;;;;40.67;36.58;;;2.30;90.90;;;;;;5064999;28;20191;-77
2021/01/05 05:47:41;;;;;;;41.10;37.05;;;2.20;90.90;;;;;;5064569;28;20211;-77
2021/01/05 05:50:14;;;;;;;41.00;36.92;;;2.30;90.60;;;;;;5072446;28;20211;-77
2021/01/05 05:52:47;;;;;;;39.88;35.97;;;2.30;91.00;;;;;;5072627;28;20203;-77
2021/01/05 05:55:26;;;;;;;39.60;35.60;;;2.40;92.30;;;;;;5063214;28;20214;-77
2021/01/05 05:57:57;;;;;;;39.95;35.95;;;2.40;91.40;;;;;;5052781;28;20303;-77
2021/01/05 06:00:33;;;;;;;42.35;38.20;;;2.50;90.80;;;;;;5052948;28;20546;-77
2021/01/05 06:03:02;;;;;;;40.33;36.42;;;2.40;90.50;;;;;;5052567;28;20200;-77
2021/01/05 06:05:34;;;;;;;43.35;38.75;;;2.40;90.50;;;;;;5062852;28;20199;-77
2021/01/05 06:08:01;;;;;;;40.10;36.13;;;2.30;90.60;;;;;;5071858;28;20734;-77
2021/01/05 06:10:27;;;;;;;524.40;88.40;;;2.40;90.70;;;;;;5072277;28;20216;-77
2021/01/05 06:12:54;;;;;;;41.92;37.55;;;2.50;91.90;;;;;;5073780;28;20195;-77
2021/01/05 06:15:21;;;;;;;40.58;36.35;;;2.60;91.70;;;;;;5066663;28;20185;-78
2021/01/05 06:17:47;;;;;;;112.63;45.13;;;2.50;91.10;;;;;;5056144;28;20216;-77
2021/01/05 06:20:16;;;;;;;40.55;36.60;;;2.60;91.00;;;;;;5056374;28;20199;-77
2021/01/05 06:22:42;;;;;;;38.63;34.60;;;2.50;90.40;;;;;;5056242;28;20200;-77
2021/01/05 06:25:10;;;;;;;40.42;36.42;;;2.60;90.20;;;;;;5056885;28;20245;-77
2021/01/05 06:27:37;;;;;;;132.20;46.50;;;2.50;90.10;;;;;;5056342;28;20213;-77
2021/01/05 06:30:05;;;;;;;39.42;35.38;;;2.60;93.00;;;;;;5060483;28;20208;-77
2021/01/05 06:32:31;;;;;;;39.78;35.47;;;2.40;91.10;;;;;;5076094;28;20203;-77
2021/01/05 06:34:58;;;;;;;44.45;35.75;;;2.50;91.20;;;;;;5076207;28;20192;-77
2021/01/05 06:37:25;;;;;;;38.30;34.50;;;2.60;90.60;;;;;;5064909;28;20217;-77
2021/01/05 06:39:51;;;;;;;42.33;37.92;;;2.60;90.60;;;;;;5055975;28;20204;-77
2021/01/05 06:42:18;;;;;;;39.70;35.70;;;2.60;90.60;;;;;;5056010;28;20196;-77
2021/01/05 06:44:45;;;;;;;37.80;33.78;;;2.60;90.50;;;;;;5072538;28;20223;-77
2021/01/05 06:47:13;;;;;;;39.50;35.47;;;2.70;90.00;;;;;;5072135;28;20213;-77
2021/01/05 06:49:39;;;;;;;55.75;37.90;;;2.70;90.80;;;;;;5055417;28;20562;-77
2021/01/05 06:52:06;;;;;;;38.60;34.38;;;2.60;90.60;;;;;;5075329;28;20200;-77
2021/01/05 06:54:33;;;;;;;41.58;37.55;;;2.60;90.40;;;;;;5075396;28;20196;-77
2021/01/05 06:57:00;;;;;;;37.10;33.40;;;2.60;90.20;;;;;;5074927;28;20220;-77
2021/01/05 06:59:27;;;;;;;38.53;34.60;;;2.50;90.80;;;;;;5055418;28;20196;-77
2021/01/05 07:01:55;;;;;;;40.30;36.03;;;2.50;91.10;;;;;;5055507;28;20192;-77
2021/01/05 07:04:21;;;;;;;39.55;35.50;;;2.60;91.20;;;;;;5055596;28;20192;-77
2021/01/05 07:06:48;;;;;;;40.92;36.65;;;2.60;90.50;;;;;;5055230;28;20217;-77
2021/01/05 07:09:17;;;;;;;41.28;37.30;;;2.60;90.50;;;;;;5055712;28;20192;-77
2021/01/05 07:11:44;;;;;;;39.83;35.85;;;2.60;90.80;;;;;;5055231;28;20212;-77
2021/01/05 07:14:12;;;;;;;38.25;34.65;;;2.60;90.40;;;;;;5055172;28;20531;-77
2021/01/05 07:16:38;;;;;;;39.08;35.03;;;2.50;90.60;;;;;;5056068;28;20307;-77
2021/01/05 07:19:05;;;;;;;39.28;35.05;;;2.60;90.90;;;;;;5055121;28;20330;-77
2021/01/05 07:21:31;;;;;;;39.03;35.08;;;2.60;90.90;;;;;;5056256;28;20193;-77
2021/01/05 07:23:58;;;;;;;42.03;37.92;;;2.60;90.80;;;;;;5054430;28;20197;-77
2021/01/05 07:26:24;;;;;;;38.92;34.75;;;2.50;91.10;;;;;;5054638;28;20228;-77
2021/01/05 07:28:51;;;;;;;38.45;34.65;;;2.50;90.90;;;;;;5054896;28;20200;-77
2021/01/05 07:31:18;;;;;;;40.92;36.75;;;2.60;90.60;;;;;;5060464;28;20587;-77
2021/01/05 07:33:44;;;;;;;38.75;34.95;;;2.50;90.80;;;;;;5075093;28;20576;-77
2021/01/05 07:36:25;;;;;;;38.70;35.00;;;2.40;91.50;;;;;;5074817;28;20268;-77
2021/01/05 07:38:51;;;;;;;37.53;33.92;;;2.50;91.80;;;;;;5075096;28;20196;-77
2021/01/05 07:41:18;;;;;;;38.33;34.63;;;2.60;91.00;;;;;;5073308;28;20196;-77
2021/01/05 07:43:44;;;;;;;39.67;35.58;;;2.60;91.20;;;;;;5074913;28;20294;-77
2021/01/05 07:46:12;;;;;;;39.40;35.60;;;2.60;91.10;;;;;;5080612;28;20873;-77
2021/01/05 07:48:38;;;;;;;38.15;34.53;;;2.60;91.40;;;;;;5076014;28;20278;-77
2021/01/05 07:51:06;;;;;;;39.03;35.28;;;2.60;91.10;;;;;;5070539;28;20270;-77
2021/01/05 07:53:32;;;;;;;37.95;34.42;;;2.70;91.00;;;;;;5054631;28;20611;-77
2021/01/05 07:55:59;;;;;;;38.58;34.80;;;2.50;91.00;;;;;;5054090;28;20296;-77
2021/01/05 07:58:25;;;;;;;37.65;34.17;;;2.50;91.10;;;;;;5054683;28;20200;-77
2021/01/05 08:00:52;;;;;;;36.60;33.05;;;2.40;91.40;;;;;;5056582;28;20188;-77
2021/01/05 08:03:19;;;;;;;37.58;34.15;;;2.50;91.60;;;;;;5070905;28;20191;-77
2021/01/05 08:05:46;;;;;;;38.65;34.85;;;2.40;91.60;;;;;;5054171;28;20727;-77
2021/01/05 08:08:13;;;;;;;37.30;33.92;;;2.30;92.10;;;;;;5061714;28;20194;-77
2021/01/05 08:10:40;;;;;;;37.15;33.65;;;2.30;92.60;;;;;;5055366;28;20219;-77
2021/01/05 08:13:09;;;;;;;36.10;32.67;;;2.30;93.00;;;;;;5054201;28;20192;-77
2021/01/05 08:15:36;;;;;;;35.88;32.63;;;2.50;92.80;;;;;;5053959;28;20625;-76
2021/01/05 08:18:03;;;;;;;36.17;32.72;;;2.50;92.00;;;;;;5059899;28;20191;-77
2021/01/05 08:20:32;;;;;;;36.75;33.22;;;2.50;92.00;;;;;;5073944;28;20200;-77
2021/01/05 08:22:59;;;;;;;35.50;32.25;;;2.50;92.20;;;;;;5073964;28;20250;-77
2021/01/05 08:25:26;;;;;;;37.45;33.65;;;2.70;91.90;;;;;;5073816;28;20712;-77
2021/01/05 08:27:53;;;;;;;35.72;32.45;;;2.60;91.80;;;;;;5069110;28;20209;-77
2021/01/05 08:30:22;;;;;;;34.63;31.50;;;2.50;91.90;;;;;;5053629;28;20266;-77
2021/01/05 08:32:50;;;;;;;37.15;33.85;;;2.60;92.30;;;;;;5053860;28;20275;-77
2021/01/05 08:35:19;;;;;;;37.72;34.33;;;2.60;92.10;;;;;;5053375;28;20633;-77
2021/01/05 08:37:46;;;;;;;36.50;33.10;;;2.60;92.20;;;;;;5053421;28;20220;-77
2021/01/05 08:40:16;;;;;;;34.72;31.52;;;2.70;92.10;;;;;;5060270;28;20600;-77
2021/01/05 08:42:43;;;;;;;34.33;31.30;;;2.60;92.10;;;;;;5070945;28;20283;-77
2021/01/05 08:45:10;;;;;;;36.00;32.75;;;2.60;92.50;;;;;;5053551;28;20197;-77
2021/01/05 08:47:37;;;;;;;33.47;30.38;;;2.60;92.20;;;;;;5072271;28;20216;-77
2021/01/05 08:50:07;;;;;;;34.47;31.35;;;2.50;92.40;;;;;;5072980;28;20512;-77
2021/01/05 08:52:34;;;;;;;35.30;32.00;;;2.50;92.30;;;;;;5062158;28;20226;-77
2021/01/05 08:55:01;;;;;;;34.22;30.83;;;2.40;92.60;;;;;;5053235;28;20201;-76
2021/01/05 08:57:27;;;;;;;34.50;31.40;;;2.40;92.90;;;;;;5052997;28;20269;-77
2021/01/05 08:59:55;;;;;;;36.13;32.70;;;2.40;93.00;;;;;;5053725;28;20251;-77
2021/01/05 09:02:21;;;;;;;34.00;30.95;;;2.40;92.60;;;;;;5054691;28;20188;-77
2021/01/05 09:04:47;;;;;;;36.13;33.00;;;2.30;92.90;;;;;;5053335;28;20663;-77
2021/01/05 09:07:19;;;;;;;34.40;31.27;;;2.40;93.10;;;;;;5052970;28;20220;-77
2021/01/05 09:09:46;;;;;;;33.85;30.83;;;2.50;93.00;;;;;;5053169;28;20254;-77
2021/01/05 09:12:13;;;;;;;35.33;32.00;;;2.60;92.60;;;;;;5065135;28;20307;-77
2021/01/05 09:14:39;;;;;;;33.88;30.60;;;2.50;92.70;;;;;;5062239;28;20281;-77
2021/01/05 09:17:06;;;;;;;36.08;32.92;;;2.50;92.50;;;;;;5052840;28;20285;-77
2021/01/05 09:19:32;;;;;;;32.03;29.00;;;2.60;92.60;;;;;;5052975;28;20566;-77
2021/01/05 09:21:59;;;;;;;34.92;31.73;;;2.60;92.40;;;;;;5069278;28;20188;-77
2021/01/05 09:24:25;;;;;;;36.35;32.95;;;2.60;92.10;;;;;;5072861;28;20192;-77
2021/01/05 09:26:53;;;;;;;34.67;31.58;;;2.60;92.60;;;;;;5072722;28;20265;-77
2021/01/05 09:29:20;;;;;;;35.20;31.85;;;2.60;92.70;;;;;;5072766;28;20206;-77
2021/01/05 09:31:49;;;;;;;34.13;31.08;;;2.60;93.10;;;;;;5057861;28;20243;-77
2021/01/05 09:34:18;;;;;;;46.15;33.33;;;2.80;92.30;;;;;;5067454;28;20188;-77
2021/01/05 09:36:45;;;;;;;34.03;31.00;;;2.80;93.30;;;;;;5072541;28;20701;-77
2021/01/05 09:39:14;;;;;;;30.88;28.17;;;2.80;94.10;;;;;;5072715;28;20192;-77
2021/01/05 09:41:42;;;;;;;34.08;30.98;;;2.80;92.90;;;;;;5059643;28;20191;-77
2021/01/05 09:44:10;;;;;;;33.65;30.65;;;2.90;93.30;;;;;;5052555;28;20193;-77
2021/01/05 09:46:39;;;;;;;35.45;32.20;;;2.90;92.80;;;;;;5053307;28;20212;-76
2021/01/05 09:49:06;;;;;;;48.70;32.22;;;2.90;93.00;;;;;;5051838;28;20215;-77
2021/01/05 09:51:33;;;;;;;33.22;30.33;;;3.00;93.30;;;;;;5052523;28;20219;-77
2021/01/05 09:53:59;;;;;;;33.83;30.73;;;3.20;93.30;;;;;;5052290;28;20553;-77
2021/01/05 09:56:26;;;;;;;35.63;32.13;;;3.30;91.30;;;;;;5052475;28;20222;-77
2021/01/05 09:58:52;;;;;;;33.60;30.48;;;3.20;90.30;;;;;;5054447;28;20742;-77
2021/01/05 10:01:24;;;;;;;33.63;30.52;;;3.00;90.70;;;;;;5072563;28;20664;-77
2021/01/05 10:03:52;;;;;;;34.45;31.27;;;3.00;91.30;;;;;;5072231;28;20270;-77
2021/01/05 10:06:18;;;;;;;33.38;30.38;;;3.30;90.40;;;;;;5072374;28;20241;-76
2021/01/05 10:08:44;;;;;;;40.10;31.15;;;3.20;90.40;;;;;;5071772;28;20569;-77
2021/01/05 10:11:11;;;;;;;33.47;30.58;;;3.10;92.00;;;;;;5052340;28;20224;-77
2021/01/05 10:13:37;;;;;;;33.50;30.00;;;3.10;92.30;;;;;;5052388;28;20600;-77
2021/01/05 10:16:04;;;;;;;34.28;31.08;;;3.10;93.60;;;;;;5052034;28;20224;-77
2021/01/05 10:18:31;;;;;;;34.50;31.08;;;3.10;91.60;;;;;;5052356;28;20211;-77
2021/01/05 10:20:58;;;;;;;35.53;32.33;;;3.20;90.80;;;;;;5070343;28;20569;-76
2021/01/05 10:23:24;;;;;;;37.03;33.30;;;3.30;90.90;;;;;;5072183;28;20665;-77
2021/01/05 10:25:51;;;;;;;34.83;31.55;;;3.20;90.20;;;;;;5071862;28;20279;-77
2021/01/05 10:28:17;;;;;;;33.80;30.70;;;3.10;90.60;;;;;;5072335;28;20282;-77
2021/01/05 10:30:44;;;;;;;35.17;31.88;;;3.10;91.20;;;;;;5055293;28;20219;-77
2021/01/05 10:33:10;;;;;;;37.92;34.33;;;3.10;91.50;;;;;;5052255;28;20291;-77
2021/01/05 10:35:36;;;;;;;37.22;33.65;;;3.00;90.80;;;;;;5051912;28;20201;-77
2021/01/05 10:38:03;;;;;;;36.58;32.97;;;3.00;90.80;;;;;;5059619;28;20192;-77
2021/01/05 10:40:30;;;;;;;36.95;33.28;;;3.10;91.10;;;;;;5064064;28;20185;-77
2021/01/05 10:42:57;;;;;;;575.22;96.47;;;3.40;90.30;;;;;;5063493;28;20215;-77
2021/01/05 10:45:27;;;;;;;45.25;32.45;;;3.40;92.00;;;;;;5072177;28;20273;-77
2021/01/05 10:47:53;;;;;;;34.28;31.00;;;3.40;92.70;;;;;;5065872;28;20626;-77
2021/01/05 10:50:22;;;;;;;35.13;31.77;;;3.60;93.10;;;;;;5051700;28;20221;-77
2021/01/05 10:52:49;;;;;;;33.60;30.60;;;3.70;90.00;;;;;;5059550;28;20553;-77
2021/01/05 10:55:18;;;;;;;33.95;30.80;;;3.60;89.70;;;;;;5052010;28;20219;-77
2021/01/05 10:57:44;;;;;;;35.10;31.90;;;3.50;90.00;;;;;;5052580;28;20227;-77
2021/01/05 11:00:15;;;;;;;34.55;31.15;;;3.50;89.80;;;;;;5058713;28;20196;-77
2021/01/05 11:02:41;;;;;;;34.88;31.58;;;3.50;90.10;;;;;;5062631;28;20280;-77
2021/01/05 11:05:12;;;;;;;33.83;30.85;;;3.70;89.70;;;;;;5071193;28;20292;-77
2021/01/05 11:07:38;;;;;;;34.92;31.83;;;3.70;90.00;;;;;;5055300;28;20212;-77
2021/01/05 11:10:06;;;;;;;34.72;31.55;;;3.90;88.60;;;;;;5055337;28;20600;-77
2021/01/05 11:12:33;;;;;;;34.65;31.30;;;3.90;87.20;;;;;;5055420;28;20273;-77
2021/01/05 11:14:59;;;;;;;33.90;31.00;;;4.00;86.90;;;;;;5055313;28;20193;-78
2021/01/05 11:17:25;;;;;;;34.20;31.10;;;3.90;87.00;;;;;;5075171;28;20215;-77
2021/01/05 11:19:52;;;;;;;34.78;31.67;;;3.90;87.30;;;;;;5062659;28;20566;-77
2021/01/05 11:22:19;;;;;;;33.55;30.73;;;4.00;87.00;;;;;;5055044;28;20189;-77
2021/01/05 11:24:46;;;;;;;34.05;31.00;;;4.10;86.00;;;;;;5055290;28;20558;-77
2021/01/05 11:27:14;;;;;;;33.85;31.00;;;4.00;85.50;;;;;;5069704;28;20212;-77
2021/01/05 11:29:42;;;;;;;37.28;33.72;;;4.10;85.80;;;;;;5075176;28;20196;-77
2021/01/05 11:32:10;;;;;;;33.55;30.45;;;4.10;85.50;;;;;;5074987;28;20327;-77
2021/01/05 11:34:37;;;;;;;34.25;31.15;;;4.00;86.30;;;;;;5075033;28;20203;-77
2021/01/05 11:37:05;;;;;;;32.85;29.75;;;3.80;87.20;;;;;;5061211;28;20579;-77
2021/01/05 11:39:32;;;;;;;36.05;32.65;;;3.80;87.80;;;;;;5054823;28;20270;-77
2021/01/05 11:41:59;;;;;;;33.80;30.70;;;3.60;87.80;;;;;;5058815;28;20580;-77
2021/01/05 11:44:25;;;;;;;36.45;33.22;;;3.60;88.00;;;;;;5074439;28;20206;-77
2021/01/05 11:46:53;;;;;;;35.15;31.50;;;3.70;87.60;;;;;;5074642;28;20216;-77
2021/01/05 11:49:19;;;;;;;35.17;32.00;;;3.90;87.00;;;;;;5074516;28;20192;-77
2021/01/05 11:51:49;;;;;;;34.38;31.38;;;3.80;87.00;;;;;;5074096;28;20217;-77
2021/01/05 11:54:15;;;;;;;34.63;31.38;;;3.70;88.50;;;;;;5067426;28;20184;-77
2021/01/05 11:56:41;;;;;;;35.35;31.83;;;3.70;88.40;;;;;;5054607;28;20582;-77
2021/01/05 11:59:08;;;;;;;34.20;31.00;;;3.60;88.90;;;;;;5054576;28;20666;-77
2021/01/05 12:01:36;;;;;;;35.88;32.70;;;3.60;88.40;;;;;;5054900;28;20199;-77
2021/01/05 12:04:03;;;;;;;36.97;33.17;;;3.50;88.50;;;;;;5057531;28;20688;-77
2021/01/05 12:06:29;;;;;;;36.45;33.10;;;3.50;90.00;;;;;;5074222;28;20215;-76
2021/01/05 12:08:56;;;;;;;36.25;32.97;;;3.50;89.30;;;;;;5073972;28;20188;-77
2021/01/05 12:11:24;;;;;;;35.90;32.50;;;3.40;89.20;;;;;;5073717;28;20693;-77
2021/01/05 12:13:52;;;;;;;36.65;33.25;;;3.40;89.10;;;;;;5055026;28;20258;-77
2021/01/05 12:16:25;;;;;;;36.05;32.58;;;3.50;88.60;;;;;;5053778;28;20729;-77
2021/01/05 12:18:52;;;;;;;33.30;30.45;;;3.70;88.30;;;;;;5054119;28;20204;-77
2021/01/05 12:21:25;;;;;;;35.47;32.03;;;3.70;87.50;;;;;;5054168;28;20343;-77
2021/01/05 12:23:51;;;;;;;35.28;31.48;;;3.70;87.60;;;;;;5056064;28;20199;-77
2021/01/05 12:26:29;;;;;;;33.72;30.63;;;3.80;87.70;;;;;;5073189;28;20295;-77
2021/01/05 12:28:56;;;;;;;36.50;33.05;;;3.80;87.00;;;;;;5054639;28;20196;-77
2021/01/05 12:31:23;;;;;;;36.30;32.70;;;3.60;87.90;;;;;;5054764;28;20219;-77
2021/01/05 12:33:50;;;;;;;33.53;30.60;;;3.50;88.80;;;;;;5072019;28;20196;-77
2021/01/05 12:36:25;;;;;;;34.22;31.05;;;3.50;89.20;;;;;;5073653;28;20306;-77
2021/01/05 12:38:52;;;;;;;32.75;29.63;;;3.70;89.90;;;;;;5073660;28;20242;-77
2021/01/05 12:41:18;;;;;;;34.42;31.27;;;3.80;88.40;;;;;;5070978;28;21893;-77
2021/01/05 12:43:44;;;;;;;35.67;32.08;;;3.80;88.40;;;;;;5053569;28;20265;-77
2021/01/05 12:46:11;;;;;;;35.67;32.33;;;3.70;87.90;;;;;;5053307;28;20311;-77
2021/01/05 12:48:38;;;;;;;34.17;31.15;;;3.70;87.70;;;;;;5053320;28;20243;-77
2021/01/05 12:51:05;;;;;;;36.60;33.15;;;3.60;88.00;;;;;;5053547;28;20226;-77